sensor_id;sensor_type;location;lat;lon;timestamp;P1;durP1;ratioP1;P2;durP2;ratioP2
35223;SDS011;21367;51.930;8.112;2023-08-06T00:01:12;14.18;;;6.22;;
35223;SDS011;21367;51.930;8.112;2023-08-06T00:06:18;12.30;;;5.70;;
35223;SDS011;21367;51.930;8.112;2023-08-06T00:11:22;13.30;;;6.45;;
35223;SDS011;21367;51.930;8.112;2023-08-06T00:16:26;10.55;;;5.32;;
35223;SDS011;21367;51.930;8.112;2023-08-06T00:21:32;9.07;;;5.78;;
35223;SDS011;21367;51.930;8.112;2023-08-06T00:26:36;15.75;;;5.63;;
35223;SDS011;21367;51.930;8.112;2023-08-06T00:31:39;11.50;;;6.20;;
35223;SDS011;21367;51.930;8.112;2023-08-06T00:36:46;13.77;;;5.50;;
35223;SDS011;21367;51.930;8.112;2023-08-06T00:46:53;7.05;;;4.95;;
35223;SDS011;21367;51.930;8.112;2023-08-06T00:51:59;13.18;;;6.00;;
35223;SDS011;21367;51.930;8.112;2023-08-06T01:02:08;9.65;;;5.95;;
35223;SDS011;21367;51.930;8.112;2023-08-06T01:07:17;12.55;;;5.72;;
35223;SDS011;21367;51.930;8.112;2023-08-06T01:12:31;15.70;;;6.03;;
35223;SDS011;21367;51.930;8.112;2023-08-06T01:17:42;10.07;;;5.72;;
35223;SDS011;21367;51.930;8.112;2023-08-06T01:22:50;11.97;;;5.97;;
35223;SDS011;21367;51.930;8.112;2023-08-06T01:27:54;8.95;;;5.38;;
35223;SDS011;21367;51.930;8.112;2023-08-06T01:39:13;13.60;;;6.07;;
35223;SDS011;21367;51.930;8.112;2023-08-06T01:44:16;12.23;;;6.68;;
35223;SDS011;21367;51.930;8.112;2023-08-06T01:49:21;16.17;;;6.70;;
35223;SDS011;21367;51.930;8.112;2023-08-06T01:54:27;9.20;;;5.95;;
35223;SDS011;21367;51.930;8.112;2023-08-06T01:59:31;9.73;;;5.85;;
35223;SDS011;21367;51.930;8.112;2023-08-06T02:04:34;10.55;;;4.95;;
35223;SDS011;21367;51.930;8.112;2023-08-06T02:09:42;11.10;;;5.55;;
35223;SDS011;21367;51.930;8.112;2023-08-06T02:19:48;10.70;;;6.28;;
35223;SDS011;21367;51.930;8.112;2023-08-06T02:24:55;13.00;;;6.07;;
35223;SDS011;21367;51.930;8.112;2023-08-06T02:29:58;18.63;;;5.80;;
35223;SDS011;21367;51.930;8.112;2023-08-06T02:35:04;20.77;;;5.83;;
35223;SDS011;21367;51.930;8.112;2023-08-06T02:40:11;13.77;;;6.30;;
35223;SDS011;21367;51.930;8.112;2023-08-06T02:45:15;13.05;;;6.18;;
35223;SDS011;21367;51.930;8.112;2023-08-06T02:50:19;16.15;;;5.32;;
35223;SDS011;21367;51.930;8.112;2023-08-06T02:55:25;12.40;;;5.78;;
35223;SDS011;21367;51.930;8.112;2023-08-06T03:00:29;11.07;;;5.70;;
35223;SDS011;21367;51.930;8.112;2023-08-06T03:05:33;13.95;;;5.90;;
35223;SDS011;21367;51.930;8.112;2023-08-06T03:10:40;11.27;;;6.53;;
35223;SDS011;21367;51.930;8.112;2023-08-06T03:15:51;22.27;;;6.45;;
35223;SDS011;21367;51.930;8.112;2023-08-06T03:20:55;10.82;;;5.80;;
35223;SDS011;21367;51.930;8.112;2023-08-06T03:26:05;11.45;;;5.53;;
35223;SDS011;21367;51.930;8.112;2023-08-06T03:31:10;8.27;;;5.30;;
35223;SDS011;21367;51.930;8.112;2023-08-06T03:36:17;15.35;;;5.53;;
35223;SDS011;21367;51.930;8.112;2023-08-06T03:41:24;24.20;;;6.32;;
35223;SDS011;21367;51.930;8.112;2023-08-06T03:46:27;15.75;;;5.35;;
35223;SDS011;21367;51.930;8.112;2023-08-06T03:51:33;16.67;;;6.00;;
35223;SDS011;21367;51.930;8.112;2023-08-06T03:56:39;8.88;;;6.07;;
35223;SDS011;21367;51.930;8.112;2023-08-06T04:06:47;16.95;;;5.65;;
35223;SDS011;21367;51.930;8.112;2023-08-06T04:11:53;11.38;;;5.55;;
35223;SDS011;21367;51.930;8.112;2023-08-06T04:16:58;12.10;;;6.43;;
35223;SDS011;21367;51.930;8.112;2023-08-06T04:22:04;14.23;;;5.00;;
35223;SDS011;21367;51.930;8.112;2023-08-06T04:27:11;10.95;;;5.22;;
35223;SDS011;21367;51.930;8.112;2023-08-06T04:32:17;13.68;;;6.18;;
35223;SDS011;21367;51.930;8.112;2023-08-06T04:37:26;17.67;;;6.45;;
35223;SDS011;21367;51.930;8.112;2023-08-06T04:42:32;14.75;;;6.20;;
35223;SDS011;21367;51.930;8.112;2023-08-06T04:47:36;12.18;;;5.70;;
35223;SDS011;21367;51.930;8.112;2023-08-06T04:52:39;10.70;;;6.35;;
35223;SDS011;21367;51.930;8.112;2023-08-06T04:57:46;14.32;;;6.07;;
35223;SDS011;21367;51.930;8.112;2023-08-06T05:02:49;11.57;;;5.53;;
35223;SDS011;21367;51.930;8.112;2023-08-06T05:07:54;10.23;;;6.03;;
35223;SDS011;21367;51.930;8.112;2023-08-06T05:13:01;9.80;;;6.03;;
35223;SDS011;21367;51.930;8.112;2023-08-06T05:23:08;16.33;;;7.07;;
35223;SDS011;21367;51.930;8.112;2023-08-06T05:28:14;17.10;;;8.77;;
35223;SDS011;21367;51.930;8.112;2023-08-06T05:33:17;12.65;;;7.47;;
35223;SDS011;21367;51.930;8.112;2023-08-06T05:38:21;16.33;;;8.30;;
35223;SDS011;21367;51.930;8.112;2023-08-06T05:43:27;12.75;;;8.60;;
35223;SDS011;21367;51.930;8.112;2023-08-06T05:48:31;11.35;;;7.05;;
35223;SDS011;21367;51.930;8.112;2023-08-06T05:53:35;13.93;;;8.00;;
35223;SDS011;21367;51.930;8.112;2023-08-06T05:58:41;12.05;;;6.35;;
35223;SDS011;21367;51.930;8.112;2023-08-06T06:03:46;10.60;;;7.15;;
35223;SDS011;21367;51.930;8.112;2023-08-06T06:08:50;9.40;;;6.93;;
35223;SDS011;21367;51.930;8.112;2023-08-06T06:13:57;14.65;;;7.10;;
35223;SDS011;21367;51.930;8.112;2023-08-06T06:19:00;14.45;;;7.07;;
35223;SDS011;21367;51.930;8.112;2023-08-06T06:24:04;12.65;;;6.90;;
35223;SDS011;21367;51.930;8.112;2023-08-06T06:29:11;11.98;;;6.32;;
35223;SDS011;21367;51.930;8.112;2023-08-06T06:39:18;11.95;;;6.82;;
35223;SDS011;21367;51.930;8.112;2023-08-06T06:44:24;15.35;;;7.50;;
35223;SDS011;21367;51.930;8.112;2023-08-06T06:49:28;16.10;;;7.78;;
35223;SDS011;21367;51.930;8.112;2023-08-06T06:54:31;9.93;;;6.93;;
35223;SDS011;21367;51.930;8.112;2023-08-06T06:59:37;11.27;;;6.40;;
35223;SDS011;21367;51.930;8.112;2023-08-06T07:04:41;10.52;;;5.80;;
35223;SDS011;21367;51.930;8.112;2023-08-06T07:09:45;12.45;;;5.40;;
35223;SDS011;21367;51.930;8.112;2023-08-06T07:14:51;12.43;;;5.30;;
35223;SDS011;21367;51.930;8.112;2023-08-06T07:19:54;7.60;;;5.13;;
35223;SDS011;21367;51.930;8.112;2023-08-06T07:24:58;9.63;;;5.28;;
35223;SDS011;21367;51.930;8.112;2023-08-06T07:30:05;12.73;;;5.80;;
35223;SDS011;21367;51.930;8.112;2023-08-06T07:35:09;12.45;;;5.68;;
35223;SDS011;21367;51.930;8.112;2023-08-06T07:40:14;11.45;;;5.10;;
35223;SDS011;21367;51.930;8.112;2023-08-06T07:45:21;9.38;;;5.18;;
35223;SDS011;21367;51.930;8.112;2023-08-06T07:50:24;7.05;;;4.25;;
35223;SDS011;21367;51.930;8.112;2023-08-06T07:55:28;12.43;;;4.22;;
35223;SDS011;21367;51.930;8.112;2023-08-06T08:00:34;7.60;;;4.65;;
35223;SDS011;21367;51.930;8.112;2023-08-06T08:05:39;8.27;;;4.00;;
35223;SDS011;21367;51.930;8.112;2023-08-06T08:10:42;12.77;;;3.92;;
35223;SDS011;21367;51.930;8.112;2023-08-06T08:15:48;7.45;;;3.45;;
35223;SDS011;21367;51.930;8.112;2023-08-06T08:20:52;3.67;;;2.33;;
35223;SDS011;21367;51.930;8.112;2023-08-06T08:25:56;7.60;;;2.63;;
35223;SDS011;21367;51.930;8.112;2023-08-06T08:31:02;7.20;;;2.20;;
35223;SDS011;21367;51.930;8.112;2023-08-06T08:36:06;4.72;;;2.60;;
35223;SDS011;21367;51.930;8.112;2023-08-06T08:41:10;3.95;;;2.58;;
35223;SDS011;21367;51.930;8.112;2023-08-06T08:46:17;3.58;;;2.13;;
35223;SDS011;21367;51.930;8.112;2023-08-06T08:51:21;5.75;;;2.47;;
35223;SDS011;21367;51.930;8.112;2023-08-06T08:56:26;7.33;;;3.07;;
35223;SDS011;21367;51.930;8.112;2023-08-06T09:01:32;4.57;;;2.50;;
35223;SDS011;21367;51.930;8.112;2023-08-06T09:06:38;2.88;;;2.13;;
35223;SDS011;21367;51.930;8.112;2023-08-06T09:11:43;4.13;;;2.72;;
35223;SDS011;21367;51.930;8.112;2023-08-06T09:16:51;4.13;;;2.20;;
35223;SDS011;21367;51.930;8.112;2023-08-06T09:21:55;3.80;;;1.85;;
35223;SDS011;21367;51.930;8.112;2023-08-06T09:26:59;3.70;;;1.70;;
35223;SDS011;21367;51.930;8.112;2023-08-06T09:32:08;7.55;;;1.95;;
35223;SDS011;21367;51.930;8.112;2023-08-06T09:37:12;3.65;;;1.85;;
35223;SDS011;21367;51.930;8.112;2023-08-06T09:42:16;2.60;;;1.58;;
35223;SDS011;21367;51.930;8.112;2023-08-06T09:47:22;3.95;;;1.50;;
35223;SDS011;21367;51.930;8.112;2023-08-06T09:52:27;5.65;;;1.50;;
35223;SDS011;21367;51.930;8.112;2023-08-06T09:57:31;4.35;;;2.33;;
35223;SDS011;21367;51.930;8.112;2023-08-06T10:02:38;6.78;;;1.80;;
35223;SDS011;21367;51.930;8.112;2023-08-06T10:07:42;4.97;;;1.58;;
35223;SDS011;21367;51.930;8.112;2023-08-06T10:12:49;4.15;;;1.50;;
35223;SDS011;21367;51.930;8.112;2023-08-06T10:18:57;2.58;;;1.88;;
35223;SDS011;21367;51.930;8.112;2023-08-06T10:24:02;4.45;;;1.85;;
35223;SDS011;21367;51.930;8.112;2023-08-06T10:40:01;2.30;;;1.42;;
35223;SDS011;21367;51.930;8.112;2023-08-06T10:45:12;2.60;;;1.30;;
35223;SDS011;21367;51.930;8.112;2023-08-06T10:50:20;5.13;;;1.40;;
35223;SDS011;21367;51.930;8.112;2023-08-06T10:55:25;2.83;;;1.65;;
35223;SDS011;21367;51.930;8.112;2023-08-06T11:00:30;5.25;;;1.70;;
35223;SDS011;21367;51.930;8.112;2023-08-06T11:05:37;2.80;;;1.63;;
35223;SDS011;21367;51.930;8.112;2023-08-06T11:10:40;5.18;;;1.60;;
35223;SDS011;21367;51.930;8.112;2023-08-06T11:15:44;2.95;;;1.50;;
35223;SDS011;21367;51.930;8.112;2023-08-06T11:20:50;4.95;;;2.17;;
35223;SDS011;21367;51.930;8.112;2023-08-06T11:25:54;2.22;;;1.67;;
35223;SDS011;21367;51.930;8.112;2023-08-06T11:30:58;3.80;;;1.67;;
35223;SDS011;21367;51.930;8.112;2023-08-06T11:36:06;4.60;;;1.65;;
35223;SDS011;21367;51.930;8.112;2023-08-06T11:41:10;5.85;;;1.90;;
35223;SDS011;21367;51.930;8.112;2023-08-06T11:46:15;2.85;;;1.90;;
35223;SDS011;21367;51.930;8.112;2023-08-06T11:51:24;4.60;;;2.33;;
35223;SDS011;21367;51.930;8.112;2023-08-06T11:56:29;4.47;;;2.15;;
35223;SDS011;21367;51.930;8.112;2023-08-06T12:01:32;3.58;;;1.90;;
35223;SDS011;21367;51.930;8.112;2023-08-06T12:06:44;5.57;;;2.05;;
35223;SDS011;21367;51.930;8.112;2023-08-06T12:11:47;4.90;;;1.92;;
35223;SDS011;21367;51.930;8.112;2023-08-06T12:16:51;2.53;;;1.63;;
35223;SDS011;21367;51.930;8.112;2023-08-06T12:21:57;4.25;;;2.17;;
35223;SDS011;21367;51.930;8.112;2023-08-06T12:27:01;4.82;;;2.35;;
35223;SDS011;21367;51.930;8.112;2023-08-06T12:32:05;9.98;;;2.78;;
35223;SDS011;21367;51.930;8.112;2023-08-06T12:37:12;16.33;;;4.40;;
35223;SDS011;21367;51.930;8.112;2023-08-06T12:42:16;8.50;;;2.50;;
35223;SDS011;21367;51.930;8.112;2023-08-06T12:47:20;6.40;;;3.08;;
35223;SDS011;21367;51.930;8.112;2023-08-06T12:52:26;6.15;;;3.33;;
35223;SDS011;21367;51.930;8.112;2023-08-06T12:57:30;8.68;;;4.35;;
35223;SDS011;21367;51.930;8.112;2023-08-06T13:02:35;11.40;;;4.22;;
35223;SDS011;21367;51.930;8.112;2023-08-06T13:07:41;13.10;;;3.63;;
35223;SDS011;21367;51.930;8.112;2023-08-06T13:12:45;7.45;;;3.17;;
35223;SDS011;21367;51.930;8.112;2023-08-06T13:17:49;18.10;;;3.83;;
35223;SDS011;21367;51.930;8.112;2023-08-06T13:22:55;8.38;;;4.30;;
35223;SDS011;21367;51.930;8.112;2023-08-06T13:27:58;11.32;;;3.97;;
35223;SDS011;21367;51.930;8.112;2023-08-06T13:33:02;10.30;;;3.70;;
35223;SDS011;21367;51.930;8.112;2023-08-06T13:38:09;8.85;;;3.50;;
35223;SDS011;21367;51.930;8.112;2023-08-06T13:43:13;9.40;;;4.07;;
35223;SDS011;21367;51.930;8.112;2023-08-06T13:48:22;6.97;;;3.08;;
35223;SDS011;21367;51.930;8.112;2023-08-06T13:53:28;10.13;;;3.92;;
35223;SDS011;21367;51.930;8.112;2023-08-06T13:58:34;7.75;;;3.97;;
35223;SDS011;21367;51.930;8.112;2023-08-06T14:03:39;9.43;;;3.97;;
35223;SDS011;21367;51.930;8.112;2023-08-06T14:08:45;8.07;;;4.90;;
35223;SDS011;21367;51.930;8.112;2023-08-06T14:13:49;7.43;;;4.72;;
35223;SDS011;21367;51.930;8.112;2023-08-06T14:18:53;6.47;;;4.95;;
35223;SDS011;21367;51.930;8.112;2023-08-06T14:24:00;14.98;;;4.38;;
35223;SDS011;21367;51.930;8.112;2023-08-06T14:29:04;7.82;;;3.53;;
35223;SDS011;21367;51.930;8.112;2023-08-06T14:34:08;4.88;;;3.38;;
35223;SDS011;21367;51.930;8.112;2023-08-06T14:39:15;13.75;;;4.40;;
35223;SDS011;21367;51.930;8.112;2023-08-06T14:44:19;8.38;;;4.82;;
35223;SDS011;21367;51.930;8.112;2023-08-06T14:49:23;11.55;;;4.15;;
35223;SDS011;21367;51.930;8.112;2023-08-06T14:54:29;6.80;;;4.10;;
35223;SDS011;21367;51.930;8.112;2023-08-06T14:59:37;5.78;;;2.88;;
35223;SDS011;21367;51.930;8.112;2023-08-06T15:04:41;10.48;;;3.10;;
35223;SDS011;21367;51.930;8.112;2023-08-06T15:09:47;5.75;;;2.50;;
35223;SDS011;21367;51.930;8.112;2023-08-06T15:14:51;2.47;;;1.75;;
35223;SDS011;21367;51.930;8.112;2023-08-06T15:19:57;2.90;;;1.65;;
35223;SDS011;21367;51.930;8.112;2023-08-06T15:25:04;4.75;;;2.50;;
35223;SDS011;21367;51.930;8.112;2023-08-06T15:30:08;3.88;;;2.35;;
35223;SDS011;21367;51.930;8.112;2023-08-06T15:35:13;5.07;;;2.60;;
35223;SDS011;21367;51.930;8.112;2023-08-06T15:40:20;4.43;;;2.83;;
35223;SDS011;21367;51.930;8.112;2023-08-06T15:45:23;2.78;;;2.08;;
35223;SDS011;21367;51.930;8.112;2023-08-06T15:50:27;2.80;;;1.70;;
35223;SDS011;21367;51.930;8.112;2023-08-06T15:55:34;3.70;;;1.90;;
35223;SDS011;21367;51.930;8.112;2023-08-06T16:00:38;2.55;;;1.45;;
35223;SDS011;21367;51.930;8.112;2023-08-06T16:05:44;2.85;;;1.58;;
35223;SDS011;21367;51.930;8.112;2023-08-06T16:10:51;2.78;;;1.88;;
35223;SDS011;21367;51.930;8.112;2023-08-06T16:15:54;5.75;;;1.80;;
35223;SDS011;21367;51.930;8.112;2023-08-06T16:21:04;3.42;;;1.63;;
35223;SDS011;21367;51.930;8.112;2023-08-06T16:26:32;2.63;;;1.58;;
35223;SDS011;21367;51.930;8.112;2023-08-06T16:31:36;3.45;;;1.38;;
35223;SDS011;21367;51.930;8.112;2023-08-06T16:36:40;3.95;;;1.42;;
35223;SDS011;21367;51.930;8.112;2023-08-06T16:41:46;3.50;;;1.60;;
35223;SDS011;21367;51.930;8.112;2023-08-06T16:46:50;4.70;;;1.60;;
35223;SDS011;21367;51.930;8.112;2023-08-06T16:51:54;3.45;;;1.83;;
35223;SDS011;21367;51.930;8.112;2023-08-06T16:57:04;8.25;;;1.73;;
35223;SDS011;21367;51.930;8.112;2023-08-06T17:02:09;3.85;;;1.88;;
35223;SDS011;21367;51.930;8.112;2023-08-06T17:07:13;2.45;;;1.63;;
35223;SDS011;21367;51.930;8.112;2023-08-06T17:12:22;3.33;;;1.70;;
35223;SDS011;21367;51.930;8.112;2023-08-06T17:17:26;3.80;;;1.80;;
35223;SDS011;21367;51.930;8.112;2023-08-06T17:22:30;3.50;;;1.90;;
35223;SDS011;21367;51.930;8.112;2023-08-06T17:27:37;3.45;;;1.90;;
35223;SDS011;21367;51.930;8.112;2023-08-06T17:32:41;2.50;;;1.63;;
35223;SDS011;21367;51.930;8.112;2023-08-06T17:37:45;6.93;;;1.70;;
35223;SDS011;21367;51.930;8.112;2023-08-06T17:42:52;2.67;;;1.58;;
35223;SDS011;21367;51.930;8.112;2023-08-06T17:47:55;2.33;;;1.23;;
35223;SDS011;21367;51.930;8.112;2023-08-06T17:52:59;2.33;;;1.33;;
35223;SDS011;21367;51.930;8.112;2023-08-06T17:58:06;2.75;;;1.50;;
35223;SDS011;21367;51.930;8.112;2023-08-06T18:03:12;2.40;;;1.35;;
35223;SDS011;21367;51.930;8.112;2023-08-06T18:08:16;5.60;;;1.55;;
35223;SDS011;21367;51.930;8.112;2023-08-06T18:13:23;6.80;;;2.10;;
35223;SDS011;21367;51.930;8.112;2023-08-06T18:18:26;14.88;;;2.40;;
35223;SDS011;21367;51.930;8.112;2023-08-06T18:23:30;4.78;;;2.22;;
35223;SDS011;21367;51.930;8.112;2023-08-06T18:28:37;5.03;;;2.33;;
35223;SDS011;21367;51.930;8.112;2023-08-06T18:33:41;10.82;;;2.38;;
35223;SDS011;21367;51.930;8.112;2023-08-06T18:38:45;8.35;;;2.33;;
35223;SDS011;21367;51.930;8.112;2023-08-06T18:43:53;4.13;;;2.40;;
35223;SDS011;21367;51.930;8.112;2023-08-06T18:48:56;4.95;;;2.38;;
35223;SDS011;21367;51.930;8.112;2023-08-06T18:54:00;6.57;;;2.05;;
35223;SDS011;21367;51.930;8.112;2023-08-06T18:59:07;10.63;;;2.40;;
35223;SDS011;21367;51.930;8.112;2023-08-06T19:04:12;3.28;;;1.90;;
35223;SDS011;21367;51.930;8.112;2023-08-06T19:09:16;3.33;;;2.08;;
35223;SDS011;21367;51.930;8.112;2023-08-06T19:14:22;5.15;;;2.58;;
35223;SDS011;21367;51.930;8.112;2023-08-06T19:19:27;8.57;;;2.47;;
35223;SDS011;21367;51.930;8.112;2023-08-06T19:24:30;5.85;;;3.50;;
35223;SDS011;21367;51.930;8.112;2023-08-06T19:29:37;4.65;;;3.10;;
35223;SDS011;21367;51.930;8.112;2023-08-06T19:34:41;5.40;;;3.22;;
35223;SDS011;21367;51.930;8.112;2023-08-06T19:39:45;5.40;;;3.25;;
35223;SDS011;21367;51.930;8.112;2023-08-06T19:44:53;7.13;;;3.97;;
35223;SDS011;21367;51.930;8.112;2023-08-06T19:49:56;6.25;;;4.10;;
35223;SDS011;21367;51.930;8.112;2023-08-06T19:55:00;11.27;;;4.50;;
35223;SDS011;21367;51.930;8.112;2023-08-06T20:00:07;12.77;;;4.53;;
35223;SDS011;21367;51.930;8.112;2023-08-06T20:05:15;9.68;;;4.38;;
35223;SDS011;21367;51.930;8.112;2023-08-06T20:10:18;7.22;;;3.33;;
35223;SDS011;21367;51.930;8.112;2023-08-06T20:15:25;13.13;;;3.50;;
35223;SDS011;21367;51.930;8.112;2023-08-06T20:20:30;10.30;;;3.00;;
35223;SDS011;21367;51.930;8.112;2023-08-06T20:25:34;6.88;;;2.55;;
35223;SDS011;21367;51.930;8.112;2023-08-06T20:30:42;8.93;;;2.40;;
35223;SDS011;21367;51.930;8.112;2023-08-06T20:35:46;10.00;;;2.20;;
35223;SDS011;21367;51.930;8.112;2023-08-06T20:40:51;8.77;;;2.27;;
35223;SDS011;21367;51.930;8.112;2023-08-06T20:46:02;7.28;;;1.70;;
35223;SDS011;21367;51.930;8.112;2023-08-06T20:51:09;7.97;;;1.95;;
35223;SDS011;21367;51.930;8.112;2023-08-06T20:56:16;8.80;;;2.10;;
35223;SDS011;21367;51.930;8.112;2023-08-06T21:01:23;6.45;;;1.25;;
35223;SDS011;21367;51.930;8.112;2023-08-06T21:06:27;4.50;;;1.20;;
35223;SDS011;21367;51.930;8.112;2023-08-06T21:11:32;5.05;;;1.30;;
35223;SDS011;21367;51.930;8.112;2023-08-06T21:16:39;6.47;;;1.10;;
35223;SDS011;21367;51.930;8.112;2023-08-06T21:21:44;10.60;;;1.92;;
35223;SDS011;21367;51.930;8.112;2023-08-06T21:26:48;5.25;;;0.73;;
35223;SDS011;21367;51.930;8.112;2023-08-06T21:31:55;9.32;;;1.05;;
35223;SDS011;21367;51.930;8.112;2023-08-06T21:42:04;7.20;;;0.90;;
35223;SDS011;21367;51.930;8.112;2023-08-06T21:47:11;9.13;;;1.00;;
35223;SDS011;21367;51.930;8.112;2023-08-06T21:52:16;9.00;;;0.80;;
35223;SDS011;21367;51.930;8.112;2023-08-06T21:57:20;9.70;;;2.65;;
35223;SDS011;21367;51.930;8.112;2023-08-06T22:02:26;4.78;;;1.00;;
35223;SDS011;21367;51.930;8.112;2023-08-06T22:12:33;5.47;;;0.65;;
35223;SDS011;21367;51.930;8.112;2023-08-06T22:17:43;9.50;;;0.70;;
35223;SDS011;21367;51.930;8.112;2023-08-06T22:22:47;6.35;;;0.90;;
35223;SDS011;21367;51.930;8.112;2023-08-06T22:27:51;6.65;;;0.85;;
35223;SDS011;21367;51.930;8.112;2023-08-06T22:32:57;9.52;;;1.05;;
35223;SDS011;21367;51.930;8.112;2023-08-06T22:38:02;8.88;;;0.98;;
35223;SDS011;21367;51.930;8.112;2023-08-06T22:43:08;10.48;;;1.00;;
35223;SDS011;21367;51.930;8.112;2023-08-06T22:48:14;10.77;;;1.33;;
35223;SDS011;21367;51.930;8.112;2023-08-06T22:58:22;13.07;;;1.08;;
35223;SDS011;21367;51.930;8.112;2023-08-06T23:03:28;12.38;;;1.38;;
35223;SDS011;21367;51.930;8.112;2023-08-06T23:08:33;10.25;;;1.30;;
35223;SDS011;21367;51.930;8.112;2023-08-06T23:13:36;11.77;;;1.40;;
35223;SDS011;21367;51.930;8.112;2023-08-06T23:18:44;6.97;;;1.27;;
35223;SDS011;21367;51.930;8.112;2023-08-06T23:23:48;11.43;;;1.35;;
35223;SDS011;21367;51.930;8.112;2023-08-06T23:28:52;9.50;;;1.15;;
35223;SDS011;21367;51.930;8.112;2023-08-06T23:33:58;5.28;;;1.35;;
35223;SDS011;21367;51.930;8.112;2023-08-06T23:39:02;20.55;;;1.55;;
35223;SDS011;21367;51.930;8.112;2023-08-06T23:44:11;11.60;;;2.47;;
35223;SDS011;21367;51.930;8.112;2023-08-06T23:49:18;14.25;;;1.38;;
35223;SDS011;21367;51.930;8.112;2023-08-06T23:54:23;12.80;;;1.58;;
35223;SDS011;21367;51.930;8.112;2023-08-06T23:59:27;9.88;;;1.45;;
